Time;durP1;ratioP1;P1;durP2;ratioP2;P2;SDS_P1;SDS_P2;PMS_P1;PMS_P2;Temp;Humidity;BMP_temperature;BMP_pressure;BME280_temperature;BME280_humidity;BME280_pressure;Samples;Min_cycle;Max_cycle;Signal;HPM_P1;HPM_P2
2022/04/23 00:00:09;;;;;;;4.68;3.28;;;;;;;10.01;94.61;100083.09;5178258;28;20056;-78
2022/04/23 00:02:41;;;;;;;4.95;3.63;;;;;;;9.96;95.34;100074.63;5179836;28;20037;-78
2022/04/23 00:05:11;;;;;;;6.90;3.78;;;;;;;9.87;95.59;100075.84;5177772;28;20049;-78
2022/04/23 00:07:41;;;;;;;5.60;3.50;;;;;;;9.92;95.42;100086.06;5177944;28;20500;-77
2022/04/23 00:10:12;;;;;;;4.53;3.60;;;;;;;9.82;95.69;100076.94;5190444;28;20018;-78
2022/04/23 00:12:46;;;;;;;4.75;3.60;;;;;;;9.81;95.25;100075.22;5182675;28;20025;-78
2022/04/23 00:15:16;;;;;;;5.70;3.50;;;;;;;9.77;95.16;100071.03;5189666;28;20032;-77
2022/04/23 00:17:47;;;;;;;5.50;3.67;;;;;;;9.75;94.83;100076.31;5178230;28;20025;-77
2022/04/23 00:20:18;;;;;;;5.72;3.75;;;;;;;9.77;94.89;100071.88;5179836;28;20842;-78
2022/04/23 00:22:49;;;;;;;5.00;3.63;;;;;;;9.81;94.36;100070.84;5177841;28;20066;-77
2022/04/23 00:25:19;;;;;;;5.25;3.83;;;;;;;9.76;94.18;100061.50;5182239;28;20014;-78
2022/04/23 00:27:49;;;;;;;5.53;3.67;;;;;;;9.68;94.50;100071.41;5178348;28;20022;-77
2022/04/23 00:30:20;;;;;;;4.82;3.33;;;;;;;9.74;93.57;100068.53;5180136;28;20022;-78
2022/04/23 00:32:50;;;;;;;4.97;3.58;;;;;;;9.72;93.72;100070.38;5174220;28;20018;-78
2022/04/23 00:35:20;;;;;;;5.07;3.63;;;;;;;9.51;94.92;100076.44;5179225;28;20030;-78
2022/04/23 00:37:51;;;;;;;4.63;3.63;;;;;;;9.49;94.26;100073.88;5178998;28;20022;-78
2022/04/23 00:40:24;;;;;;;5.97;3.97;;;;;;;9.36;95.39;100074.44;5184019;28;20023;-78
2022/04/23 00:42:57;;;;;;;5.18;3.70;;;;;;;9.38;95.04;100075.22;5184150;28;20038;-78
2022/04/23 00:45:28;;;;;;;6.90;3.97;;;;;;;9.32;95.29;100081.50;5187973;28;20018;-78
2022/04/23 00:47:58;;;;;;;5.00;3.80;;;;;;;9.40;94.29;100078.59;5172990;28;20038;-77
2022/04/23 00:50:29;;;;;;;6.20;4.43;;;;;;;9.46;93.42;100078.38;5176899;28;20160;-78
2022/04/23 00:53:02;;;;;;;6.95;4.22;;;;;;;9.25;94.23;100080.06;5176714;28;20045;-78
2022/04/23 00:55:33;;;;;;;5.70;4.40;;;;;;;9.26;94.14;100070.47;5178224;28;20048;-78
2022/04/23 00:58:04;;;;;;;6.82;4.63;;;;;;;9.18;94.28;100072.53;5165563;28;20057;-78
2022/04/23 01:00:34;;;;;;;6.53;4.43;;;;;;;9.09;94.37;100075.47;5173575;28;20030;-78
2022/04/23 01:03:05;;;;;;;6.63;4.70;;;;;;;9.13;93.70;100074.47;5173168;28;20033;-78
2022/04/23 01:05:36;;;;;;;7.80;5.22;;;;;;;9.23;92.85;100073.19;5175331;28;20024;-78
2022/04/23 01:08:06;;;;;;;7.50;4.70;;;;;;;9.23;92.46;100074.06;5177090;28;20474;-78
2022/04/23 01:10:37;;;;;;;7.30;5.15;;;;;;;9.15;93.11;100072.66;5188272;28;20033;-78
2022/04/23 01:13:08;;;;;;;8.55;4.90;;;;;;;9.05;94.23;100076.50;5180897;28;20034;-78
2022/04/23 01:15:38;;;;;;;5.97;4.80;;;;;;;8.95;94.76;100071.69;5184491;28;20030;-78
2022/04/23 01:18:09;;;;;;;7.13;5.32;;;;;;;8.80;95.05;100075.72;5175221;28;20045;-78
2022/04/23 01:20:39;;;;;;;7.28;5.38;;;;;;;8.67;95.97;100066.63;5176221;28;20034;-78
2022/04/23 01:23:10;;;;;;;9.85;5.22;;;;;;;8.74;95.74;100073.31;5176581;28;20057;-78
2022/04/23 01:25:40;;;;;;;9.00;5.30;;;;;;;8.67;96.11;100064.03;5176076;28;20033;-77
2022/04/23 01:28:12;;;;;;;7.03;5.20;;;;;;;8.61;96.75;100069.47;5174867;28;20030;-78
2022/04/23 01:30:43;;;;;;;7.82;5.50;;;;;;;8.56;97.39;100066.16;5176418;28;20050;-78
2022/04/23 01:33:13;;;;;;;8.63;5.70;;;;;;;8.51;96.77;100072.41;5177891;28;20452;-78
2022/04/23 01:35:44;;;;;;;9.02;6.18;;;;;;;8.53;97.17;100075.84;5179521;28;20062;-78
2022/04/23 01:38:14;;;;;;;8.05;6.57;;;;;;;8.55;97.04;100069.66;5179274;28;20159;-78
2022/04/23 01:40:45;;;;;;;9.88;6.60;;;;;;;8.61;96.27;100074.69;5185088;28;20033;-78
2022/04/23 01:43:15;;;;;;;9.63;6.30;;;;;;;8.61;96.05;100069.47;5183997;28;20046;-78
2022/04/23 01:45:46;;;;;;;9.00;6.55;;;;;;;8.55;96.39;100074.88;5184830;28;20417;-78
2022/04/23 01:48:16;;;;;;;10.65;7.03;;;;;;;8.53;96.25;100071.47;5180090;28;20036;-78
2022/04/23 01:50:46;;;;;;;9.55;6.65;;;;;;;8.43;96.70;100069.25;5176262;28;20022;-78
2022/04/23 01:53:18;;;;;;;8.57;6.50;;;;;;;8.48;96.41;100065.59;5178573;28;20026;-78
2022/04/23 01:55:55;;;;;;;9.82;6.55;;;;;;;8.45;95.78;100063.09;5175987;28;20058;-78
2022/04/23 01:58:26;;;;;;;10.75;6.75;;;;;;;8.53;95.35;100073.25;5176918;28;20041;-78
2022/04/23 02:00:58;;;;;;;8.52;6.72;;;;;;;8.34;95.91;100067.81;5180925;28;20033;-77
2022/04/23 02:03:29;;;;;;;9.38;6.80;;;;;;;8.32;95.81;100073.97;5171350;28;20026;-78
2022/04/23 02:06:00;;;;;;;9.02;6.80;;;;;;;8.29;95.85;100072.34;5177297;28;20049;-78
2022/04/23 02:08:30;;;;;;;9.40;7.13;;;;;;;8.28;96.22;100082.78;5175895;28;20064;-78
2022/04/23 02:11:00;;;;;;;9.48;7.18;;;;;;;8.39;95.24;100078.91;5183770;28;20026;-78
2022/04/23 02:13:31;;;;;;;8.93;7.18;;;;;;;8.36;95.30;100073.81;5180479;28;20032;-78
2022/04/23 02:16:04;;;;;;;11.25;7.75;;;;;;;8.43;95.09;100070.13;5177919;28;20161;-77
2022/04/23 02:18:38;;;;;;;8.20;7.13;;;;;;;8.39;95.46;100063.28;5178326;28;20022;-78
2022/04/23 02:21:09;;;;;;;11.70;7.20;;;;;;;8.37;95.12;100075.50;5174994;28;20121;-78
2022/04/23 02:23:39;;;;;;;10.68;7.97;;;;;;;8.45;94.97;100078.72;5175331;28;20202;-78
2022/04/23 02:26:10;;;;;;;10.10;7.13;;;;;;;8.40;95.22;100075.41;5175407;28;20026;-78
2022/04/23 02:28:40;;;;;;;11.85;7.70;;;;;;;8.40;95.64;100078.00;5176353;28;20396;-78
2022/04/23 02:31:10;;;;;;;8.95;6.93;;;;;;;8.39;95.25;100081.53;5174718;28;20112;-78
2022/04/23 02:33:41;;;;;;;10.32;7.35;;;;;;;8.33;95.21;100089.53;5178408;28;20025;-78
2022/04/23 02:36:11;;;;;;;9.88;7.55;;;;;;;8.31;95.61;100088.75;5179006;28;20698;-78
2022/04/23 02:38:42;;;;;;;10.95;7.65;;;;;;;8.40;94.83;100088.41;5182077;28;20399;-78
2022/04/23 02:41:12;;;;;;;15.43;7.60;;;;;;;8.34;95.58;100086.03;5185003;28;20484;-78
2022/04/23 02:43:43;;;;;;;10.00;7.13;;;;;;;8.25;96.09;100078.53;5185011;28;20025;-78
2022/04/23 02:46:14;;;;;;;9.82;7.47;;;;;;;8.00;97.72;100084.56;5183654;28;20370;-78
2022/04/23 02:48:44;;;;;;;11.48;7.85;;;;;;;7.86;98.56;100092.84;5176557;28;20086;-77
2022/04/23 02:51:15;;;;;;;10.73;7.97;;;;;;;7.88;98.05;100090.22;5177327;28;20110;-78
2022/04/23 02:53:45;;;;;;;13.23;7.97;;;;;;;7.83;99.30;100092.06;5176655;28;20041;-78
2022/04/23 02:56:17;;;;;;;12.38;7.80;;;;;;;7.77;98.97;100098.34;5175187;28;20034;-78
2022/04/23 02:58:47;;;;;;;11.55;7.53;;;;;;;7.59;100.00;100098.94;5178935;28;20105;-77
2022/04/23 03:01:17;;;;;;;12.07;8.07;;;;;;;7.64;100.00;100097.03;5176565;28;20026;-78
2022/04/23 03:03:48;;;;;;;13.98;8.20;;;;;;;7.63;100.00;100095.34;5176832;28;20399;-78
2022/04/23 03:06:19;;;;;;;12.98;8.52;;;;;;;7.61;100.00;100091.94;5173313;28;20058;-78
2022/04/23 03:08:49;;;;;;;12.88;8.20;;;;;;;7.56;100.00;100103.38;5178062;28;20076;-78
2022/04/23 03:11:19;;;;;;;9.93;7.95;;;;;;;7.54;100.00;100097.38;5182069;28;20033;-78
2022/04/23 03:13:50;;;;;;;13.30;8.80;;;;;;;7.48;100.00;100098.41;5183205;28;20084;-78
2022/04/23 03:16:21;;;;;;;11.07;8.25;;;;;;;7.49;100.00;100105.31;5181571;28;20022;-78
2022/04/23 03:18:51;;;;;;;11.55;8.38;;;;;;;7.43;100.00;100096.84;5173475;28;20026;-77
2022/04/23 03:21:22;;;;;;;14.60;8.88;;;;;;;7.41;100.00;100093.44;5173025;28;20026;-78
2022/04/23 03:23:52;;;;;;;12.55;9.20;;;;;;;7.36;100.00;100097.94;5178114;28;20504;-78
2022/04/23 03:26:23;;;;;;;9.57;7.90;;;;;;;7.39;100.00;100103.03;5176113;28;20384;-78
2022/04/23 03:28:53;;;;;;;14.90;9.00;;;;;;;7.34;100.00;100102.34;5173612;28;20033;-77
2022/04/23 03:31:23;;;;;;;12.00;8.82;;;;;;;7.25;100.00;100101.75;5173443;28;20093;-78
2022/04/23 03:33:53;;;;;;;13.13;9.07;;;;;;;7.12;100.00;100116.84;5179859;28;20044;-78
2022/04/23 03:36:24;;;;;;;12.15;9.10;;;;;;;7.11;100.00;100109.94;5175342;28;20384;-78
2022/04/23 03:38:54;;;;;;;11.40;8.23;;;;;;;7.12;100.00;100116.00;5175891;28;20068;-78
2022/04/23 03:41:25;;;;;;;12.35;9.05;;;;;;;7.20;100.00;100117.47;5176494;28;20029;-78
2022/04/23 03:43:55;;;;;;;13.90;9.18;;;;;;;7.10;100.00;100117.78;5185001;28;20484;-78
2022/04/23 03:46:26;;;;;;;15.93;9.38;;;;;;;7.10;100.00;100120.41;5182437;28;20029;-78
2022/04/23 03:48:56;;;;;;;13.20;9.23;;;;;;;7.02;100.00;100117.16;5174862;28;20773;-78
2022/04/23 03:51:26;;;;;;;15.05;9.23;;;;;;;7.12;100.00;100121.19;5175192;28;20037;-79
2022/04/23 03:53:57;;;;;;;12.95;9.15;;;;;;;7.09;100.00;100118.69;5180266;28;20030;-78
2022/04/23 03:56:28;;;;;;;12.45;9.30;;;;;;;7.07;100.00;100120.47;5175709;28;20599;-78
2022/04/23 03:58:58;;;;;;;12.77;8.95;;;;;;;6.98;100.00;100123.34;5178500;28;20030;-78
2022/04/23 04:01:28;;;;;;;15.90;10.07;;;;;;;7.06;100.00;100121.34;5178009;28;20500;-77
2022/04/23 04:04:00;;;;;;;14.77;8.88;;;;;;;7.01;100.00;100126.69;5172650;28;20026;-78
2022/04/23 04:06:30;;;;;;;13.13;9.73;;;;;;;6.92;100.00;100131.31;5175182;28;20013;-78
2022/04/23 04:09:00;;;;;;;13.43;9.63;;;;;;;6.84;100.00;100128.06;5180113;28;20048;-77
2022/04/23 04:12:01;;;;;;;13.27;9.52;;;;;;;6.83;100.00;100129.81;5180623;28;20033;-78
2022/04/23 04:14:21;;;;;;;13.02;9.45;;;;;;;6.69;100.00;100136.25;5184800;28;20021;-78
2022/04/23 04:16:51;;;;;;;13.70;9.90;;;;;;;6.78;100.00;100128.22;5176215;28;20077;-78
2022/04/23 04:19:21;;;;;;;13.93;9.80;;;;;;;6.66;100.00;100133.75;5176608;28;20030;-78
2022/04/23 04:21:52;;;;;;;14.02;9.88;;;;;;;6.62;100.00;100125.19;5172797;28;20030;-79
2022/04/23 04:24:23;;;;;;;13.25;9.73;;;;;;;6.54;100.00;100124.56;5177008;28;20109;-78
2022/04/23 04:26:54;;;;;;;15.90;10.23;;;;;;;6.52;100.00;100128.94;5172612;28;20507;-78
2022/04/23 04:29:25;;;;;;;15.00;10.70;;;;;;;6.64;100.00;100139.00;5176614;28;20060;-78
2022/04/23 04:31:56;;;;;;;14.65;10.43;;;;;;;6.59;100.00;100135.66;5178314;28;20034;-78
2022/04/23 04:34:29;;;;;;;13.93;10.20;;;;;;;6.73;100.00;100130.94;5178722;28;20157;-78
2022/04/23 04:37:05;;;;;;;14.70;10.48;;;;;;;6.70;100.00;100130.16;5182978;28;20415;-77
2022/04/23 04:39:36;;;;;;;;;;;;;;;7.02;100.00;100138.78;5188103;28;20034;-78
2022/04/23 04:42:07;;;;;;;17.15;9.05;;;;;;;7.05;100.00;100141.31;5184735;28;19999;-78
2022/04/23 04:44:38;;;;;;;13.02;8.98;;;;;;;6.98;100.00;100138.91;5191436;28;20422;-77
2022/04/23 04:47:09;;;;;;;13.60;9.68;;;;;;;7.15;100.00;100142.75;5184187;28;20035;-77
2022/04/23 04:49:39;;;;;;;14.63;9.25;;;;;;;7.20;100.00;100145.19;5183781;28;20026;-78
2022/04/23 04:52:10;;;;;;;15.45;9.55;;;;;;;7.31;100.00;100149.19;5180359;28;20034;-77
2022/04/23 04:54:40;;;;;;;14.98;8.65;;;;;;;7.42;100.00;100139.31;5182464;28;20117;-78
2022/04/23 04:57:10;;;;;;;14.70;8.88;;;;;;;7.44;100.00;100145.34;5183934;28;20030;-78
2022/04/23 04:59:41;;;;;;;12.35;8.55;;;;;;;7.69;100.00;100134.13;5184505;28;20057;-77
2022/04/23 05:02:11;;;;;;;14.93;8.43;;;;;;;7.77;100.00;100144.31;5181890;28;20093;-77
2022/04/23 05:04:41;;;;;;;15.93;8.68;;;;;;;8.02;99.96;100146.09;5179613;28;20030;-77
2022/04/23 05:07:12;;;;;;;12.20;8.32;;;;;;;8.55;97.59;100142.59;5178763;28;20033;-78
2022/04/23 05:09:42;;;;;;;11.23;7.13;;;;;;;9.13;92.63;100143.06;5188006;28;20484;-78
2022/04/23 05:12:12;;;;;;;12.18;7.20;;;;;;;10.03;88.58;100139.56;5183426;28;20426;-78
2022/04/23 05:14:43;;;;;;;9.52;6.30;;;;;;;10.14;86.95;100137.38;5187419;28;20599;-77
2022/04/23 05:17:13;;;;;;;9.48;6.45;;;;;;;10.91;83.76;100144.53;5180746;28;20137;-78
2022/04/23 05:19:44;;;;;;;10.25;6.82;;;;;;;11.02;81.71;100139.69;5176344;28;20038;-78
2022/04/23 05:22:14;;;;;;;8.68;5.95;;;;;;;10.65;84.48;100139.59;5178528;28;20034;-78
2022/04/23 05:24:45;;;;;;;10.07;6.40;;;;;;;11.87;80.45;100139.19;5178026;28;20022;-78
2022/04/23 05:27:15;;;;;;;8.43;6.10;;;;;;;12.05;79.32;100140.03;5178947;28;20022;-77
2022/04/23 05:29:45;;;;;;;9.40;5.47;;;;;;;12.31;77.91;100142.25;5177654;28;20026;-78
2022/04/23 05:32:16;;;;;;;8.50;5.60;;;;;;;12.44;77.00;100140.72;5178241;28;20033;-78
2022/04/23 05:34:46;;;;;;;8.07;5.30;;;;;;;14.57;72.21;100133.28;5179301;28;20033;-78
2022/04/23 05:37:16;;;;;;;9.27;5.50;;;;;;;13.80;71.38;100146.53;5179923;28;20280;-78
2022/04/23 05:39:46;;;;;;;9.48;5.40;;;;;;;14.87;67.64;100145.44;5188558;28;20281;-78
2022/04/23 05:42:17;;;;;;;9.40;5.40;;;;;;;15.43;66.50;100145.53;5182694;28;20030;-78
2022/04/23 05:44:47;;;;;;;9.57;5.53;;;;;;;16.43;65.08;100138.13;5191484;28;20029;-78
2022/04/23 05:47:17;;;;;;;8.60;5.35;;;;;;;14.98;68.01;100148.28;5178780;28;20268;-78
2022/04/23 05:49:48;;;;;;;7.60;5.68;;;;;;;14.44;69.45;100157.75;5179037;28;20058;-78
2022/04/23 05:52:18;;;;;;;7.05;5.30;;;;;;;13.23;73.36;100153.16;5179693;28;20040;-78
2022/04/23 05:54:48;;;;;;;8.43;5.93;;;;;;;11.13;79.34;100167.88;5177863;28;20113;-78
2022/04/23 05:57:19;;;;;;;9.07;6.35;;;;;;;10.37;83.63;100165.16;5174609;28;20018;-78
2022/04/23 05:59:49;;;;;;;9.70;7.03;;;;;;;10.11;85.91;100161.00;5176504;28;20037;-78
2022/04/23 06:02:19;;;;;;;10.43;6.87;;;;;;;9.84;87.21;100166.44;5174348;28;20080;-77
2022/04/23 06:04:49;;;;;;;11.43;6.82;;;;;;;9.56;89.64;100165.78;5175041;28;20277;-77
2022/04/23 06:07:20;;;;;;;9.65;7.25;;;;;;;9.78;89.48;100162.31;5174283;28;20459;-78
2022/04/23 06:09:50;;;;;;;9.88;7.82;;;;;;;9.86;88.58;100162.00;5177657;28;20116;-77
2022/04/23 06:12:21;;;;;;;12.43;8.25;;;;;;;9.86;89.38;100165.44;5180241;28;20072;-77
2022/04/23 06:14:52;;;;;;;10.10;7.13;;;;;;;10.03;89.62;100162.22;5186120;28;20034;-77
2022/04/23 06:17:24;;;;;;;12.05;7.72;;;;;;;10.02;89.58;100163.97;5178156;28;20416;-78
2022/04/23 06:19:57;;;;;;;16.58;8.18;;;;;;;10.26;87.63;100169.97;5170724;28;20062;-77
2022/04/23 06:22:28;;;;;;;10.35;7.50;;;;;;;10.60;85.87;100165.91;5198283;23;20071;-78
2022/04/23 06:24:58;;;;;;;10.93;7.20;;;;;;;10.58;84.69;100175.59;5190565;28;20061;-79
2022/04/23 06:27:30;;;;;;;13.02;7.53;;;;;;;12.60;77.86;100162.63;5194854;28;20091;-79
2022/04/23 06:30:01;;;;;;;9.98;6.45;;;;;;;14.92;70.22;100150.44;5191017;28;20069;-79
2022/04/23 06:32:31;;;;;;;9.40;6.13;;;;;;;15.04;66.92;100160.25;5181205;28;20495;-78
2022/04/23 06:35:01;;;;;;;7.00;5.50;;;;;;;16.19;63.33;100152.88;5170484;28;20033;-78
2022/04/23 06:37:37;;;;;;;8.65;6.05;;;;;;;16.25;62.03;100152.47;5170330;28;20026;-78
2022/04/23 06:40:11;;;;;;;7.43;5.45;;;;;;;17.77;57.92;100145.44;5165776;28;20030;-78
2022/04/23 06:42:42;;;;;;;7.60;5.40;;;;;;;16.15;60.93;100156.66;5164923;28;20050;-78
2022/04/23 06:45:12;;;;;;;7.57;5.45;;;;;;;15.85;61.81;100156.00;5163704;28;20069;-77
2022/04/23 06:47:43;;;;;;;6.97;5.05;;;;;;;16.55;59.91;100157.56;5162665;28;20031;-77
2022/04/23 06:50:13;;;;;;;7.18;5.57;;;;;;;16.47;60.00;100155.44;5162503;28;20034;-77
2022/04/23 06:52:45;;;;;;;8.65;5.13;;;;;;;17.57;58.22;100152.16;5162390;28;20026;-78
2022/04/23 06:55:15;;;;;;;7.80;5.00;;;;;;;18.27;55.86;100151.41;5161017;28;20526;-77
2022/04/23 06:57:46;;;;;;;6.63;5.20;;;;;;;18.07;55.20;100152.00;5162659;28;20018;-77
2022/04/23 07:00:17;;;;;;;6.47;5.18;;;;;;;16.97;58.22;100153.72;5161999;28;20289;-77
2022/04/23 07:02:51;;;;;;;7.15;5.18;;;;;;;16.87;59.17;100157.09;5164495;28;20079;-77
2022/04/23 07:05:21;;;;;;;6.30;4.75;;;;;;;16.92;57.11;100157.63;5165672;28;20534;-77
2022/04/23 07:07:58;;;;;;;6.95;5.22;;;;;;;17.97;56.42;100150.16;5162579;28;20042;-77
2022/04/23 07:10:31;;;;;;;7.10;5.22;;;;;;;16.37;57.21;100162.25;5162644;28;20084;-77
2022/04/23 07:13:01;;;;;;;5.85;4.82;;;;;;;17.89;55.49;100155.13;5162399;28;20631;-77
2022/04/23 07:15:31;;;;;;;6.87;4.80;;;;;;;16.89;56.74;100153.41;5162877;28;20026;-77
2022/04/23 07:18:01;;;;;;;6.03;4.80;;;;;;;18.34;54.35;100149.16;5172097;28;20280;-77
2022/04/23 07:20:32;;;;;;;7.35;5.03;;;;;;;17.33;55.58;100150.34;5162286;28;20743;-77
2022/04/23 07:25:52;;;;;;;6.90;4.70;;;;;;;19.08;52.81;100150.50;5191402;28;20028;-77
2022/04/23 07:28:22;;;;;;;5.80;4.20;;;;;;;17.89;54.00;100137.47;5188209;28;20065;-77
2022/04/23 07:30:52;;;;;;;6.88;4.45;;;;;;;18.09;53.71;100142.16;5190550;28;20046;-77
2022/04/23 07:39:00;;;;;;;5.72;4.63;;;;;;;18.05;54.24;100147.78;5181174;28;20040;-77
2022/04/23 07:41:31;;;;;;;6.65;4.70;;;;;;;17.80;55.19;100143.41;5183704;28;20029;-77
2022/04/23 07:44:01;;;;;;;5.77;4.40;;;;;;;18.15;53.95;100140.88;5188534;28;20030;-77
2022/04/23 07:46:31;;;;;;;6.93;4.05;;;;;;;17.89;53.88;100142.75;5188764;28;20272;-77
2022/04/23 07:49:01;;;;;;;5.60;4.43;;;;;;;17.86;53.19;100134.19;5189479;28;20079;-77
2022/04/23 07:51:32;;;;;;;7.18;4.72;;;;;;;17.64;53.14;100134.06;5188755;28;20285;-77
2022/04/23 07:54:02;;;;;;;7.20;4.27;;;;;;;17.38;54.53;100142.97;5190722;28;20126;-77
2022/04/23 07:56:33;;;;;;;8.13;5.10;;;;;;;16.96;53.89;100145.91;5189368;28;20296;-77
2022/04/23 07:59:03;;;;;;;6.03;4.72;;;;;;;18.06;53.09;100142.38;5191679;28;20280;-77
2022/04/23 08:01:34;;;;;;;6.60;4.57;;;;;;;17.12;55.26;100142.09;5189427;28;20036;-77
2022/04/23 08:04:04;;;;;;;6.55;4.50;;;;;;;17.08;54.66;100147.69;5190005;28;20040;-77
2022/04/23 08:06:35;;;;;;;5.72;4.40;;;;;;;16.80;53.39;100134.72;5186815;28;20412;-77
2022/04/23 08:09:06;;;;;;;6.72;4.70;;;;;;;16.68;55.22;100135.53;5186392;28;20033;-77
2022/04/23 08:11:36;;;;;;;6.05;4.40;;;;;;;16.44;54.60;100145.09;5188166;28;20030;-77
2022/04/23 08:14:06;;;;;;;5.67;4.10;;;;;;;16.72;54.90;100123.81;5194474;28;20053;-76
2022/04/23 08:16:36;;;;;;;5.75;4.30;;;;;;;17.51;54.58;100128.78;5193855;28;20309;-77
2022/04/23 08:19:08;;;;;;;7.23;4.53;;;;;;;17.26;54.95;100130.56;5194196;28;20052;-77
2022/04/23 08:21:39;;;;;;;7.43;4.18;;;;;;;17.69;53.34;100132.75;5193705;28;20281;-77
2022/04/23 08:24:09;;;;;;;6.83;4.40;;;;;;;16.48;54.43;100143.94;5194060;28;20044;-76
2022/04/23 08:26:39;;;;;;;4.57;3.90;;;;;;;17.24;53.41;100130.69;5193646;28;20276;-76
2022/04/23 08:31:58;;;;;;;5.20;3.38;;;;;;;16.49;52.61;100136.84;5188798;28;20407;-76
2022/04/23 08:34:29;;;;;;;4.67;3.60;;;;;;;17.70;53.60;100129.19;5195288;28;20100;-77
2022/04/23 08:36:59;;;;;;;5.23;3.47;;;;;;;16.91;53.06;100111.03;5192418;28;20299;-77
2022/04/23 08:39:29;;;;;;;5.20;3.60;;;;;;;16.74;52.55;100127.19;5186232;28;20280;-77
2022/04/23 08:42:02;;;;;;;4.20;3.03;;;;;;;16.84;52.67;100120.34;5187742;28;20284;-77
2022/04/23 08:44:32;;;;;;;7.75;3.55;;;;;;;16.59;53.86;100130.84;5191994;28;20044;-77
2022/04/23 08:47:04;;;;;;;5.68;3.80;;;;;;;16.42;54.03;100128.50;5191801;28;20036;-77
2022/04/23 08:49:40;;;;;;;4.03;3.05;;;;;;;17.03;52.81;100110.22;5188930;28;20069;-77
2022/04/23 08:52:17;;;;;;;3.83;3.10;;;;;;;15.73;55.12;100122.50;5193227;28;20068;-77
2022/04/23 08:54:47;;;;;;;5.65;3.20;;;;;;;16.23;53.58;100106.06;5193671;28;20032;-77
2022/04/23 08:57:19;;;;;;;4.38;3.50;;;;;;;16.79;54.61;100114.53;5193620;28;20029;-77
2022/04/23 08:59:53;;;;;;;5.00;3.35;;;;;;;16.61;53.87;100118.44;5193552;28;20053;-77
2022/04/23 09:02:26;;;;;;;6.80;3.60;;;;;;;16.72;53.46;100115.91;5191133;28;20094;-77
2022/04/23 09:04:56;;;;;;;4.53;3.25;;;;;;;16.77;53.54;100111.16;5191510;28;20033;-76
2022/04/23 09:07:28;;;;;;;5.82;3.70;;;;;;;16.61;54.06;100126.34;5195353;28;20626;-77
2022/04/23 09:09:59;;;;;;;4.72;3.65;;;;;;;17.99;52.05;100093.53;5190937;28;20065;-77
2022/04/23 09:12:29;;;;;;;5.82;3.50;;;;;;;17.54;52.99;100098.66;5180985;28;20057;-76
2022/04/23 09:23:40;;;;;;;7.00;4.13;;;;;;;15.34;56.92;100106.59;5189017;28;20037;-77
2022/04/23 09:26:16;;;;;;;4.93;3.60;;;;;;;15.18;58.03;100113.69;5191394;28;20120;-76
2022/04/23 09:28:48;;;;;;;5.32;3.58;;;;;;;15.15;58.03;100124.44;5192852;28;20030;-77
2022/04/23 09:31:19;;;;;;;6.82;3.85;;;;;;;15.03;59.46;100098.03;5188810;28;20490;-77
2022/04/23 09:33:51;;;;;;;5.10;3.70;;;;;;;15.91;60.06;100102.88;5189464;28;20114;-77
2022/04/23 09:36:21;;;;;;;4.95;3.80;;;;;;;15.63;58.02;100110.88;5192495;28;20095;-77
2022/04/23 09:39:00;;;;;;;5.75;4.10;;;;;;;15.50;58.96;100094.16;5190884;28;20025;-77
2022/04/23 09:41:34;;;;;;;6.50;4.38;;;;;;;15.53;59.10;100101.03;5183745;28;20463;-77
2022/04/23 09:44:09;;;;;;;5.72;4.10;;;;;;;15.26;59.81;100095.66;5190216;28;20100;-77
2022/04/23 09:46:43;;;;;;;6.85;4.22;;;;;;;15.56;59.78;100093.75;5181599;28;20038;-77
2022/04/23 09:49:21;;;;;;;5.88;4.13;;;;;;;15.07;60.31;100081.94;5181191;28;20080;-77
2022/04/23 09:52:04;;;;;;;5.82;4.15;;;;;;;15.15;59.40;100084.13;5189457;28;20041;-77
2022/04/23 09:54:36;;;;;;;5.63;4.18;;;;;;;14.66;59.09;100095.06;5187596;28;20563;-77
2022/04/23 09:57:07;;;;;;;4.97;4.18;;;;;;;14.98;59.62;100077.25;5191566;28;20522;-77
2022/04/23 09:59:37;;;;;;;5.72;4.28;;;;;;;15.42;60.46;100070.09;5189211;28;20021;-77
2022/04/23 10:02:13;;;;;;;5.83;4.33;;;;;;;15.13;60.83;100078.06;5186447;28;20046;-77
2022/04/23 10:04:45;;;;;;;10.55;4.47;;;;;;;14.89;61.37;100075.19;5174995;28;20281;-77
2022/04/23 10:07:17;;;;;;;5.72;3.85;;;;;;;15.26;60.03;100069.34;5189063;28;20055;-77
2022/04/23 10:09:48;;;;;;;5.05;3.70;;;;;;;14.55;59.45;100068.53;5190520;28;20101;-77
2022/04/23 10:12:19;;;;;;;5.55;4.13;;;;;;;14.93;59.46;100057.41;5190122;28;20037;-77
2022/04/23 10:14:56;;;;;;;6.47;4.28;;;;;;;14.38;59.75;100066.06;5189519;28;20049;-77
2022/04/23 10:17:31;;;;;;;6.53;4.68;;;;;;;14.83;60.59;100059.75;5179830;28;20511;-77
2022/04/23 10:20:02;;;;;;;5.53;4.07;;;;;;;14.87;59.07;100060.41;5198404;28;20204;-77
2022/04/23 10:22:43;;;;;;;5.22;3.63;;;;;;;15.00;59.50;100064.00;5196614;28;20120;-77
2022/04/23 10:26:06;;;;;;;4.88;3.60;;;;;;;14.82;58.54;100068.59;5187528;28;20037;-76
2022/04/23 10:28:45;;;;;;;5.72;3.72;;;;;;;15.02;58.05;100057.69;5178497;28;20124;-77
2022/04/23 10:31:17;;;;;;;5.65;3.80;;;;;;;15.34;60.09;100051.28;5187648;28;20033;-77
2022/04/23 10:33:52;;;;;;;5.15;3.90;;;;;;;15.57;60.40;100048.03;5189496;28;20029;-77
2022/04/23 10:36:22;;;;;;;8.88;3.60;;;;;;;15.26;58.55;100047.41;5189440;28;20052;-76
2022/04/23 10:39:19;;;;;;;5.43;4.20;;;;;;;15.55;59.41;100043.81;5187672;28;20120;-76
2022/04/23 10:41:51;;;;;;;5.45;4.15;;;;;;;15.25;59.06;100038.69;5187556;28;20052;-77
2022/04/23 10:44:22;;;;;;;6.53;3.55;;;;;;;15.08;60.16;100048.56;5186062;28;20105;-77
2022/04/23 10:46:56;;;;;;;5.45;3.42;;;;;;;15.21;58.68;100060.84;5188148;28;20105;-77
2022/04/23 10:49:26;;;;;;;5.28;2.88;;;;;;;15.25;56.48;100048.34;5182919;28;20593;-77
2022/04/23 10:51:58;;;;;;;5.80;3.50;;;;;;;14.98;57.44;100043.03;5184130;28;20033;-77
2022/04/23 10:54:40;;;;;;;6.22;3.65;;;;;;;15.38;59.17;100023.81;5185303;28;20311;-77
2022/04/23 10:57:13;;;;;;;5.80;3.33;;;;;;;15.12;58.21;100040.38;5188845;28;20042;-77
2022/04/23 10:59:45;;;;;;;4.95;3.40;;;;;;;15.20;59.27;100030.22;5187805;28;20029;-77
2022/04/23 11:02:21;;;;;;;3.85;2.70;;;;;;;15.44;59.03;100025.22;5189343;28;20033;-78
2022/04/23 11:14:07;;;;;;;3.90;2.83;;;;;;;15.50;59.52;100015.13;5165311;28;20042;-78
2022/04/23 11:16:53;;;;;;;4.35;3.33;;;;;;;15.43;58.98;100023.53;5181371;28;20033;-77
2022/04/23 11:19:26;;;;;;;4.43;3.22;;;;;;;15.36;60.73;100014.34;5185685;28;20040;-77
2022/04/23 11:21:56;;;;;;;6.85;3.22;;;;;;;15.09;58.84;100002.88;5181932;28;20030;-77
2022/04/23 11:24:28;;;;;;;6.20;3.35;;;;;;;15.16;59.25;100004.19;5189966;28;20040;-77
2022/04/23 11:26:59;;;;;;;4.57;3.22;;;;;;;15.26;59.02;100002.66;5186659;28;20103;-77
2022/04/23 11:29:30;;;;;;;4.75;3.30;;;;;;;15.33;59.51;100010.09;5189025;28;20029;-78
2022/04/23 11:32:01;;;;;;;4.88;3.15;;;;;;;15.43;58.41;100005.94;5186813;28;20044;-77
2022/04/23 11:34:31;;;;;;;5.35;4.13;;;;;;;15.20;59.43;100001.25;5189515;28;20029;-77
2022/04/23 11:37:02;;;;;;;5.43;3.20;;;;;;;15.42;58.43;99993.72;5186336;28;20125;-76
2022/04/23 11:39:32;;;;;;;5.10;3.42;;;;;;;15.71;59.57;99991.81;5187484;28;20052;-77
2022/04/23 11:42:03;;;;;;;4.57;3.33;;;;;;;15.74;60.13;99995.09;5189368;28;20044;-77
2022/04/23 11:44:50;;;;;;;5.28;3.15;;;;;;;15.74;59.79;99975.81;5193025;28;20029;-77
2022/04/23 11:47:30;;;;;;;3.97;3.17;;;;;;;16.02;58.64;99976.50;5195064;28;20069;-78
2022/04/23 11:50:29;;;;;;;4.28;3.05;;;;;;;15.68;58.39;99984.97;5191055;28;20044;-77
2022/04/23 11:53:03;;;;;;;5.93;3.25;;;;;;;15.94;58.30;99994.63;5185183;28;20056;-77
2022/04/23 11:55:33;;;;;;;4.18;3.13;;;;;;;16.09;58.93;99983.06;5194526;28;20084;-77
2022/04/23 11:58:05;;;;;;;4.13;2.85;;;;;;;15.80;58.05;99970.97;5195575;28;20033;-77
2022/04/23 12:00:35;;;;;;;3.75;2.60;;;;;;;15.88;57.23;99959.94;5194506;28;20048;-77
2022/04/23 12:03:08;;;;;;;3.37;2.40;;;;;;;15.74;56.45;99978.44;5195142;28;20407;-77
2022/04/23 12:05:38;;;;;;;3.90;2.70;;;;;;;15.94;58.19;99978.81;5190668;28;20276;-77
2022/04/23 12:08:21;;;;;;;3.93;3.13;;;;;;;16.34;59.59;99974.31;5188909;28;20036;-76
2022/04/23 12:10:51;;;;;;;3.22;2.40;;;;;;;16.36;57.96;99973.31;5181964;28;20930;-77
2022/04/23 12:13:21;;;;;;;4.57;2.70;;;;;;;16.13;57.34;99973.13;5186158;28;20033;-77
2022/04/23 12:15:52;;;;;;;4.43;2.50;;;;;;;16.02;55.53;99970.41;5188902;28;20302;-78